Time;durP1;ratioP1;P1;durP2;ratioP2;P2;SDS_P1;SDS_P2;PMS_P1;PMS_P2;Temp;Humidity;BMP_temperature;BMP_pressure;BME280_temperature;BME280_humidity;BME280_pressure;Samples;Min_cycle;Max_cycle;Signal;HPM_P1;HPM_P2
2021/04/05 00:02:23;;;;;;;2.13;1.85;;;;;;;6.37;64.20;99418.72;5038149;28;20025;-77
2021/04/05 00:04:49;;;;;;;1.77;1.67;;;;;;;6.28;63.97;99393.44;5038024;28;20354;-77
2021/04/05 00:07:14;;;;;;;1.95;1.85;;;;;;;6.34;64.43;99419.84;5037983;28;20083;-75
2021/04/05 00:09:41;;;;;;;2.00;1.90;;;;;;;6.20;64.38;99382.91;5037869;28;20058;-75
2021/04/05 00:12:08;;;;;;;2.28;2.10;;;;;;;6.26;64.11;99379.66;5020227;28;20033;-76
2021/04/05 00:14:34;;;;;;;1.80;1.70;;;;;;;6.45;64.29;99412.72;5020377;28;20054;-76
2021/04/05 00:17:00;;;;;;;1.83;1.50;;;;;;;6.27;63.88;99373.44;5037772;28;20413;-77
2021/04/05 00:19:25;;;;;;;2.33;1.85;;;;;;;6.56;64.08;99405.41;5020318;28;20032;-77
2021/04/05 00:21:50;;;;;;;2.22;2.03;;;;;;;6.31;64.29;99357.25;5020290;28;20022;-78
2021/04/05 00:24:16;;;;;;;2.55;2.22;;;;;;;6.16;64.16;99319.47;5020178;28;20111;-76
2021/04/05 00:26:41;;;;;;;2.00;1.80;;;;;;;6.29;63.79;99356.56;5037804;28;20486;-76
2021/04/05 00:29:07;;;;;;;2.40;2.20;;;;;;;6.53;64.09;99397.03;5037620;28;20030;-76
2021/04/05 00:31:32;;;;;;;2.33;2.13;;;;;;;6.18;64.24;99369.94;5037605;28;20032;-78
2021/04/05 00:33:58;;;;;;;1.70;1.60;;;;;;;6.32;64.94;99413.94;5037602;28;20021;-75
2021/04/05 00:36:23;;;;;;;2.53;2.05;;;;;;;6.25;65.22;99393.75;5037485;28;20056;-76
2021/04/05 00:38:48;;;;;;;2.40;2.20;;;;;;;6.32;64.93;99402.63;5037599;28;20025;-77
2021/04/05 00:41:15;;;;;;;2.20;2.00;;;;;;;6.44;65.11;99416.31;5019807;28;20030;-76
2021/04/05 00:43:45;;;;;;;2.40;1.80;;;;;;;6.02;65.12;99347.06;5037381;28;20061;-78
2021/04/05 00:46:12;;;;;;;1.88;1.77;;;;;;;5.75;65.13;99282.47;5019677;28;20029;-77
2021/04/05 00:48:39;;;;;;;1.70;1.60;;;;;;;6.38;65.10;99394.97;5019899;28;20025;-76
2021/04/05 00:51:18;;;;;;;1.90;1.55;;;;;;;6.28;65.01;99367.22;5037008;28;20032;-77
2021/04/05 00:53:45;;;;;;;1.52;1.42;;;;;;;6.58;65.05;99426.22;5019726;28;20051;-76
2021/04/05 00:56:16;;;;;;;1.50;1.40;;;;;;;6.15;64.38;99341.41;5037347;28;20056;-77
2021/04/05 00:58:42;;;;;;;1.30;1.20;;;;;;;6.42;64.90;99394.66;5037236;28;20037;-77
2021/04/05 01:01:13;;;;;;;1.40;1.20;;;;;;;6.63;64.99;99421.34;5036942;28;20021;-76
2021/04/05 01:03:41;;;;;;;1.37;1.27;;;;;;;6.20;65.14;99368.00;5037165;28;20032;-78
2021/04/05 01:06:15;;;;;;;1.63;1.52;;;;;;;6.51;65.03;99398.97;5035625;28;20582;-77
2021/04/05 01:08:40;;;;;;;2.08;1.95;;;;;;;6.62;64.74;99415.28;5036874;28;20049;-76
2021/04/05 01:11:08;;;;;;;2.20;2.00;;;;;;;6.53;65.02;99407.50;5036721;28;20446;-77
2021/04/05 01:13:33;;;;;;;2.80;2.60;;;;;;;6.27;64.63;99365.56;5036845;28;20029;-77
2021/04/05 01:15:59;;;;;;;2.72;2.53;;;;;;;6.23;64.74;99344.09;5036618;28;20052;-77
2021/04/05 01:18:27;;;;;;;2.95;2.53;;;;;;;6.67;64.66;99414.81;5019161;28;20040;-77
2021/04/05 01:20:53;;;;;;;3.40;3.10;;;;;;;6.10;65.23;99335.81;5019170;28;20037;-76
2021/04/05 01:23:20;;;;;;;3.22;2.92;;;;;;;6.29;64.66;99361.81;5036715;28;20079;-76
2021/04/05 01:25:47;;;;;;;3.42;3.13;;;;;;;6.56;64.78;99405.41;5036835;28;20029;-76
2021/04/05 01:28:13;;;;;;;4.40;3.72;;;;;;;6.47;64.57;99397.66;5036486;28;20029;-77
2021/04/05 01:30:41;;;;;;;3.80;3.40;;;;;;;6.03;65.40;99358.38;5036528;28;20091;-76
2021/04/05 01:33:25;;;;;;;4.32;3.92;;;;;;;6.40;65.33;99409.72;5018804;28;20102;-76
2021/04/05 01:35:56;;;;;;;4.40;4.00;;;;;;;6.13;65.27;99353.03;5036516;28;20025;-77
2021/04/05 01:38:25;;;;;;;4.20;3.90;;;;;;;6.17;65.63;99373.53;5018772;28;20025;-76
2021/04/05 01:40:57;;;;;;;5.38;4.82;;;;;;;6.42;65.24;99413.84;5036333;28;20048;-76
2021/04/05 01:43:22;;;;;;;4.03;3.72;;;;;;;6.37;65.34;99405.63;5036081;28;20114;-77
2021/04/05 01:45:48;;;;;;;5.10;4.60;;;;;;;6.16;65.69;99392.88;5036289;28;20471;-77
2021/04/05 01:48:14;;;;;;;4.35;3.95;;;;;;;6.26;65.59;99404.06;5036131;28;20041;-76
2021/04/05 01:50:41;;;;;;;4.50;4.10;;;;;;;6.34;65.34;99408.56;5036049;28;20034;-78
2021/04/05 01:53:07;;;;;;;5.30;4.80;;;;;;;6.44;65.37;99403.19;5018486;28;20033;-78
2021/04/05 01:55:34;;;;;;;5.07;4.47;;;;;;;6.40;65.60;99420.22;5018513;28;20017;-77
2021/04/05 01:58:00;;;;;;;4.93;4.50;;;;;;;6.30;65.50;99400.16;5035895;28;20053;-78
2021/04/05 02:00:30;;;;;;;4.65;4.20;;;;;;;6.45;65.54;99400.41;5018339;28;20072;-75
2021/04/05 02:02:57;;;;;;;5.50;4.70;;;;;;;6.24;65.25;99410.44;5036140;28;20057;-75
2021/04/05 02:05:28;;;;;;;5.75;5.15;;;;;;;6.13;65.45;99366.13;5018319;28;20163;-75
2021/04/05 02:07:54;;;;;;;5.82;5.22;;;;;;;6.17;65.58;99375.34;5018097;28;20029;-76
2021/04/05 02:10:23;;;;;;;7.07;5.60;;;;;;;6.45;66.07;99410.09;5035650;28;20040;-76
2021/04/05 02:12:49;;;;;;;7.25;6.18;;;;;;;6.41;65.65;99380.72;5035630;28;20052;-76
2021/04/05 02:15:15;;;;;;;6.80;6.15;;;;;;;6.59;65.02;99406.88;5035617;28;20428;-76
2021/04/05 02:17:46;;;;;;;6.90;6.20;;;;;;;6.16;65.40;99340.44;5017745;28;20033;-77
2021/04/05 02:20:14;;;;;;;6.57;5.88;;;;;;;6.66;65.18;99403.47;5035639;28;20036;-77
2021/04/05 02:22:41;;;;;;;6.18;5.50;;;;;;;6.39;65.28;99366.94;5018166;28;20352;-76
2021/04/05 02:25:12;;;;;;;6.82;6.13;;;;;;;6.66;65.00;99413.16;5035378;28;20032;-76
2021/04/05 02:27:37;;;;;;;5.68;5.18;;;;;;;6.66;65.26;99413.97;5035337;28;20447;-77
2021/04/05 02:30:05;;;;;;;5.68;5.13;;;;;;;6.28;65.47;99359.34;5017747;28;20026;-77
2021/04/05 02:32:31;;;;;;;5.97;5.38;;;;;;;6.68;65.00;99427.75;5017852;28;20025;-76
2021/04/05 02:34:56;;;;;;;6.57;5.97;;;;;;;6.71;65.21;99426.66;5035371;28;20328;-76
2021/04/05 02:37:22;;;;;;;7.00;6.22;;;;;;;6.33;65.13;99378.88;5017674;28;20029;-77
2021/04/05 02:39:48;;;;;;;6.57;5.80;;;;;;;6.34;64.92;99372.66;5017750;28;20087;-77
2021/04/05 02:42:13;;;;;;;8.43;7.55;;;;;;;6.67;65.07;99423.50;5034969;28;20061;-77
2021/04/05 02:44:39;;;;;;;7.97;7.15;;;;;;;5.88;65.33;99323.16;5035330;28;20037;-77
2021/04/05 02:47:05;;;;;;;7.85;7.05;;;;;;;6.28;65.42;99367.22;5035081;28;20068;-77
2021/04/05 02:49:31;;;;;;;7.75;6.95;;;;;;;6.24;65.28;99358.00;5035142;28;20030;-76
2021/04/05 02:51:57;;;;;;;6.75;6.05;;;;;;;6.69;65.45;99424.19;5034928;28;20036;-76
2021/04/05 02:54:25;;;;;;;6.57;5.97;;;;;;;6.59;65.26;99393.78;5034958;28;20428;-76
2021/04/05 02:56:52;;;;;;;8.20;7.40;;;;;;;6.78;65.21;99432.94;5034885;28;20037;-76
2021/04/05 02:59:22;;;;;;;8.13;7.05;;;;;;;6.50;65.08;99392.91;5035011;28;20045;-77
2021/04/05 03:01:48;;;;;;;6.65;6.05;;;;;;;6.19;65.69;99342.75;5034864;28;20057;-76
2021/04/05 03:04:14;;;;;;;8.48;7.07;;;;;;;6.16;65.23;99342.25;5034720;28;20048;-76
2021/04/05 03:06:39;;;;;;;8.65;7.85;;;;;;;6.64;65.13;99421.19;5017289;28;20428;-76
2021/04/05 03:09:06;;;;;;;8.77;7.82;;;;;;;6.52;65.26;99405.88;5013755;28;20453;-76
2021/04/05 03:11:34;;;;;;;9.32;8.00;;;;;;;6.34;65.55;99362.19;5013852;28;20085;-76
2021/04/05 03:14:02;;;;;;;9.35;8.40;;;;;;;6.13;65.73;99318.97;5015075;28;20100;-77
2021/04/05 03:16:27;;;;;;;8.35;7.47;;;;;;;6.88;65.73;99433.63;5014980;28;20112;-75
2021/04/05 03:18:56;;;;;;;11.23;9.98;;;;;;;6.95;65.55;99425.94;5013871;28;20049;-76
2021/04/05 03:21:23;;;;;;;9.02;8.05;;;;;;;6.65;65.33;99396.59;5013751;28;20417;-76
2021/04/05 03:23:49;;;;;;;10.18;9.02;;;;;;;7.00;65.92;99439.41;5013909;28;20034;-76
2021/04/05 03:26:15;;;;;;;9.52;8.05;;;;;;;6.43;65.76;99375.31;5014591;28;20029;-76
2021/04/05 03:28:41;;;;;;;8.88;7.97;;;;;;;6.93;65.45;99449.72;5014372;28;20088;-76
2021/04/05 03:31:13;;;;;;;8.82;7.85;;;;;;;6.94;65.56;99442.69;5014636;28;20412;-76
2021/04/05 03:34:04;;;;;;;7.38;6.32;;;;;;;6.22;65.52;99352.94;5014836;28;20117;-75
2021/04/05 03:36:33;;;;;;;6.43;5.78;;;;;;;6.91;65.05;99454.31;5013708;28;20447;-77
2021/04/05 03:39:00;;;;;;;7.63;6.53;;;;;;;6.48;64.78;99371.25;5013553;28;20038;-77
2021/04/05 03:41:29;;;;;;;9.38;7.90;;;;;;;7.00;64.98;99455.19;5014581;28;20029;-77
2021/04/05 03:44:18;;;;;;;7.95;6.72;;;;;;;6.02;65.26;99289.41;5014749;28;20034;-75
2021/04/05 03:46:45;;;;;;;7.55;6.85;;;;;;;6.25;65.34;99336.88;5001692;28;20045;-77
2021/04/05 03:49:39;;;;;;;6.82;6.13;;;;;;;6.89;65.47;99453.66;5013488;28;20030;-77
2021/04/05 03:52:09;;;;;;;5.93;5.05;;;;;;;6.85;64.89;99452.31;5014459;28;20034;-76
2021/04/05 03:54:52;;;;;;;6.90;6.18;;;;;;;6.91;65.33;99469.25;5014779;28;20030;-77
2021/04/05 03:57:24;;;;;;;8.98;7.70;;;;;;;6.92;65.32;99469.09;5013495;28;20334;-75
2021/04/05 03:59:54;;;;;;;8.88;7.38;;;;;;;6.32;64.73;99366.75;5014557;28;20491;-75
2021/04/05 04:02:23;;;;;;;9.45;7.90;;;;;;;6.65;65.21;99408.88;5014438;28;20037;-76
2021/04/05 04:07:50;;;;;;;10.45;9.38;;;;;;;6.76;65.29;99431.44;5009775;28;20045;-75
2021/04/05 04:10:20;;;;;;;6.05;5.43;;;;;;;6.98;65.32;99463.22;5016626;28;20050;-76
2021/04/05 04:12:50;;;;;;;6.38;5.78;;;;;;;6.91;65.42;99448.25;5034091;28;20049;-76
2021/04/05 04:15:16;;;;;;;7.43;6.40;;;;;;;7.00;64.90;99456.00;5034089;28;20033;-76
2021/04/05 04:17:46;;;;;;;8.15;6.72;;;;;;;7.03;64.86;99451.41;5034158;28;20056;-77
2021/04/05 04:20:15;;;;;;;9.15;7.80;;;;;;;6.56;64.83;99373.09;5034047;28;20033;-76
2021/04/05 04:22:42;;;;;;;9.95;7.88;;;;;;;7.19;64.63;99477.72;5016524;28;20486;-77
2021/04/05 04:25:08;;;;;;;8.75;7.50;;;;;;;6.75;64.93;99377.31;5016272;28;20087;-76
2021/04/05 04:27:35;;;;;;;9.82;8.82;;;;;;;7.21;64.25;99444.25;5034083;28;20424;-75
2021/04/05 04:30:01;;;;;;;9.57;8.57;;;;;;;7.36;64.14;99468.94;5033928;28;20028;-76
2021/04/05 04:32:26;;;;;;;10.63;8.73;;;;;;;6.82;64.55;99373.09;5016310;28;20092;-76
2021/04/05 04:34:52;;;;;;;8.15;6.82;;;;;;;7.39;64.47;99465.16;5033975;28;20025;-77
2021/04/05 04:37:18;;;;;;;11.15;9.85;;;;;;;7.40;64.16;99465.00;5033826;28;20021;-77
2021/04/05 04:39:44;;;;;;;8.38;7.25;;;;;;;7.33;64.15;99477.13;5034885;28;20025;-76
2021/04/05 04:42:11;;;;;;;10.68;8.30;;;;;;;7.38;63.77;99485.34;5019868;28;20052;-77
2021/04/05 04:44:37;;;;;;;7.95;7.15;;;;;;;7.11;64.16;99452.25;5037674;28;20371;-77
2021/04/05 04:47:03;;;;;;;7.85;7.03;;;;;;;7.39;64.68;99484.38;5037281;28;20025;-76
2021/04/05 04:49:28;;;;;;;7.55;6.32;;;;;;;7.07;64.22;99426.50;5019777;28;20444;-76
2021/04/05 04:51:54;;;;;;;11.00;9.75;;;;;;;7.27;63.88;99483.00;5019726;28;20112;-76
2021/04/05 04:54:19;;;;;;;10.00;8.95;;;;;;;7.31;64.68;99495.66;5037157;28;20353;-77
2021/04/05 04:56:45;;;;;;;10.80;9.25;;;;;;;6.96;64.35;99451.22;5037027;28;20029;-76
2021/04/05 04:59:12;;;;;;;10.40;7.88;;;;;;;7.17;64.97;99479.69;5019503;28;20100;-77
2021/04/05 05:01:39;;;;;;;9.23;8.20;;;;;;;7.18;64.71;99458.53;5037005;28;20431;-77
2021/04/05 05:04:11;;;;;;;10.02;7.80;;;;;;;7.16;64.79;99471.00;5036882;28;20067;-77
2021/04/05 05:06:37;;;;;;;;;;;;;;;7.21;65.37;99499.41;5037332;28;20108;-76
2021/04/05 05:09:04;;;;;;;8.80;7.75;;;;;;;7.29;64.32;99496.81;5015961;28;19984;-76
2021/04/05 05:11:30;;;;;;;9.63;8.52;;;;;;;6.91;64.71;99435.13;5015793;28;20149;-77
2021/04/05 05:13:57;;;;;;;10.25;8.82;;;;;;;7.38;64.45;99489.78;5006264;28;20084;-76
2021/04/05 05:16:24;;;;;;;16.70;13.50;;;;;;;7.30;64.47;99487.94;4999567;28;20033;-77
2021/04/05 05:18:53;;;;;;;11.57;10.07;;;;;;;7.33;64.40;99474.50;5005794;28;20025;-77
2021/04/05 05:21:24;;;;;;;12.18;10.23;;;;;;;7.46;64.41;99485.41;5000590;28;20476;-76
2021/04/05 05:23:52;;;;;;;11.00;8.82;;;;;;;7.50;64.37;99486.75;4997222;28;20030;-75
2021/04/05 05:26:20;;;;;;;10.85;9.57;;;;;;;7.32;63.83;99460.53;4997014;28;20085;-76
2021/04/05 05:28:48;;;;;;;11.55;10.30;;;;;;;7.40;64.06;99479.94;5000141;28;20395;-76
2021/04/05 05:31:13;;;;;;;10.68;9.30;;;;;;;6.86;64.53;99421.66;5009752;28;20433;-76
2021/04/05 05:33:39;;;;;;;13.68;12.15;;;;;;;7.49;64.74;99503.47;5004370;28;20101;-76
2021/04/05 05:36:05;;;;;;;12.70;10.50;;;;;;;7.37;64.82;99467.13;5016543;28;20491;-76
2021/04/05 05:38:31;;;;;;;13.68;12.20;;;;;;;7.27;64.27;99449.69;5007445;28;20034;-76
2021/04/05 05:41:09;;;;;;;14.38;12.70;;;;;;;7.40;64.65;99467.63;4995806;28;20113;-76
2021/04/05 05:43:41;;;;;;;16.20;13.50;;;;;;;7.37;64.61;99460.06;5009731;28;20038;-77
2021/04/05 05:46:35;;;;;;;16.70;14.20;;;;;;;7.64;64.48;99517.66;5016317;28;20030;-77
2021/04/05 05:49:23;;;;;;;14.55;12.05;;;;;;;7.46;64.90;99519.56;5010872;28;20036;-76
2021/04/05 05:51:55;;;;;;;15.57;13.20;;;;;;;7.44;65.43;99521.53;4999195;28;20428;-76
2021/04/05 05:54:39;;;;;;;16.52;14.00;;;;;;;7.47;64.96;99526.47;5008343;28;20040;-76
2021/04/05 05:57:24;;;;;;;14.60;12.63;;;;;;;7.24;66.20;99493.84;5007604;28;20030;-75
2021/04/05 06:00:05;;;;;;;13.68;12.23;;;;;;;7.61;65.03;99532.91;5010762;28;20083;-77
2021/04/05 06:02:50;;;;;;;17.10;14.98;;;;;;;7.60;64.76;99523.38;5013877;28;20034;-77
2021/04/05 06:05:19;;;;;;;15.55;12.05;;;;;;;7.69;64.28;99538.19;5012679;28;20036;-77
2021/04/05 06:08:10;;;;;;;14.68;11.55;;;;;;;7.63;64.26;99544.91;5014421;28;20033;-76
2021/04/05 06:11:09;;;;;;;17.30;13.65;;;;;;;7.47;64.81;99536.16;5025498;28;20336;-77
2021/04/05 06:13:53;;;;;;;15.48;13.43;;;;;;;7.61;64.84;99552.13;5035153;28;20095;-76
2021/04/05 06:16:33;;;;;;;19.55;16.58;;;;;;;7.55;64.91;99512.53;5018879;28;20044;-75
2021/04/05 06:18:59;;;;;;;19.55;16.15;;;;;;;7.81;63.86;99536.09;5024871;28;20336;-75
2021/04/05 06:21:49;;;;;;;20.70;18.02;;;;;;;7.83;64.88;99534.13;5034514;28;20032;-76
2021/04/05 06:24:45;;;;;;;23.98;18.48;;;;;;;7.91;64.58;99545.47;5034329;28;20705;-76
2021/04/05 06:27:20;;;;;;;26.20;22.13;;;;;;;7.73;64.18;99528.19;5033536;28;20021;-75
2021/04/05 06:29:58;;;;;;;27.77;23.35;;;;;;;7.87;64.51;99548.59;4999984;28;20022;-77
2021/04/05 06:32:42;;;;;;;24.27;18.80;;;;;;;7.85;63.92;99551.38;5031790;28;20032;-77
2021/04/05 06:35:41;;;;;;;21.17;17.15;;;;;;;7.89;64.85;99557.13;5035183;28;20029;-76
2021/04/05 06:38:52;;;;;;;18.52;14.55;;;;;;;7.88;65.19;99560.75;5034842;28;20023;-77
2021/04/05 06:41:36;;;;;;;17.58;14.88;;;;;;;7.90;64.37;99556.16;5019762;28;20033;-76
2021/04/05 06:44:38;;;;;;;18.42;14.85;;;;;;;7.88;64.93;99568.63;5025587;28;20036;-77
2021/04/05 06:47:22;;;;;;;16.98;14.40;;;;;;;7.97;64.08;99578.19;5023574;28;20017;-76
2021/04/05 06:50:18;;;;;;;15.20;13.40;;;;;;;7.38;64.86;99513.41;5018481;28;20030;-76
2021/04/05 06:53:06;;;;;;;15.70;13.20;;;;;;;7.83;64.49;99582.25;5015998;28;20034;-76
2021/04/05 06:55:37;;;;;;;16.02;13.25;;;;;;;7.83;64.52;99579.63;5016761;28;20025;-76
2021/04/05 06:58:11;;;;;;;15.50;13.43;;;;;;;7.81;63.79;99583.41;5030628;28;20416;-76
2021/04/05 07:00:55;;;;;;;17.10;14.57;;;;;;;7.80;63.72;99581.75;5028907;28;20021;-77
2021/04/05 07:03:45;;;;;;;74.28;48.58;;;;;;;7.80;64.47;99587.00;5029567;28;20462;-76
2021/04/05 07:06:19;;;;;;;48.35;30.63;;;;;;;7.83;64.35;99584.06;5031942;28;20031;-76
2021/04/05 07:09:11;;;;;;;51.13;33.22;;;;;;;7.84;64.06;99573.38;5016189;28;20046;-76
2021/04/05 07:11:36;;;;;;;;;;;;;;;7.65;64.96;99581.53;5024560;28;20105;-76
2021/04/05 07:14:23;;;;;;;16.60;13.00;;;;;;;7.86;64.05;99592.44;5030646;28;20316;-77
2021/04/05 07:17:30;;;;;;;16.90;13.93;;;;;;;7.89;64.41;99602.66;5007461;28;20079;-75
2021/04/05 07:20:31;;;;;;;17.75;14.80;;;;;;;8.00;64.06;99600.72;5028319;28;20025;-76
2021/04/05 07:23:10;;;;;;;17.17;14.80;;;;;;;7.92;63.59;99583.94;5023882;28;20025;-76
2021/04/05 07:26:13;;;;;;;16.58;14.75;;;;;;;8.10;63.29;99604.03;5024290;28;20025;-76
2021/04/05 07:29:08;;;;;;;14.15;12.65;;;;;;;8.12;63.88;99612.56;5031905;28;20032;-76
2021/04/05 07:31:58;;;;;;;16.38;14.65;;;;;;;8.21;64.05;99609.00;5027425;28;20033;-77
2021/04/05 07:34:37;;;;;;;13.60;11.98;;;;;;;8.36;63.77;99610.06;5021692;28;20424;-77
2021/04/05 07:37:17;;;;;;;15.98;12.48;;;;;;;8.56;63.40;99611.41;5014725;28;20065;-76
2021/04/05 07:40:05;;;;;;;18.38;14.50;;;;;;;8.51;63.55;99597.09;5020693;28;20348;-76
2021/04/05 07:42:45;;;;;;;17.90;15.07;;;;;;;8.38;63.01;99550.22;5033675;28;20026;-76
2021/04/05 07:45:19;;;;;;;16.58;14.48;;;;;;;8.72;61.92;99615.03;5034088;28;20029;-77
2021/04/05 07:47:57;;;;;;;17.60;14.27;;;;;;;8.42;62.18;99572.56;5034118;28;20317;-77
2021/04/05 07:50:41;;;;;;;16.55;14.07;;;;;;;8.77;62.15;99633.78;5014021;28;20087;-76
2021/04/05 07:53:29;;;;;;;13.98;12.55;;;;;;;8.32;62.31;99532.41;5009482;28;20036;-78
2021/04/05 07:56:01;;;;;;;15.75;13.65;;;;;;;9.09;61.31;99640.88;5033042;28;20025;-77
2021/04/05 07:58:42;;;;;;;16.90;15.07;;;;;;;8.97;62.02;99608.78;5033372;28;20026;-77
2021/04/05 08:01:39;;;;;;;16.80;14.88;;;;;;;8.95;61.99;99625.75;5025879;28;20432;-82
2021/04/05 08:04:10;;;;;;;15.38;13.88;;;;;;;8.87;61.21;99640.53;5029383;28;20061;-77
2021/04/05 08:06:58;;;;;;;14.40;12.83;;;;;;;8.63;60.96;99590.50;5000302;28;20359;-81
2021/04/05 08:09:29;;;;;;;15.75;13.98;;;;;;;8.43;61.35;99552.34;5025949;28;20372;-79
2021/04/05 08:12:03;;;;;;;14.63;12.98;;;;;;;9.17;60.86;99652.22;5015301;28;20180;-78
2021/04/05 08:14:57;;;;;;;14.57;13.05;;;;;;;9.37;60.14;99662.41;5016320;28;20028;-78
2021/04/05 08:17:37;;;;;;;13.45;12.13;;;;;;;9.40;59.81;99659.44;5020104;28;20444;-76
2021/04/05 08:20:34;;;;;;;15.50;13.23;;;;;;;9.04;59.60;99577.34;5014009;28;20025;-77
2021/04/05 08:23:28;;;;;;;13.82;11.48;;;;;;;9.75;58.84;99664.31;5037779;28;20033;-77
2021/04/05 08:26:13;;;;;;;13.98;12.50;;;;;;;9.57;58.79;99638.13;5035685;28;20064;-77
2021/04/05 08:28:48;;;;;;;13.30;11.88;;;;;;;9.88;58.70;99669.88;5015459;28;20042;-82
2021/04/05 08:31:45;;;;;;;16.73;14.25;;;;;;;9.96;57.64;99662.91;5021850;28;20076;-80
2021/04/05 08:34:48;;;;;;;14.23;12.73;;;;;;;10.05;57.40;99667.16;5017577;28;20022;-82
2021/04/05 08:37:35;;;;;;;12.18;10.98;;;;;;;10.28;57.38;99676.00;5020180;28;20018;-77
2021/04/05 08:40:59;;;;;;;12.98;11.68;;;;;;;10.03;56.88;99648.88;5000189;28;20026;-77
2021/04/05 08:44:05;;;;;;;11.40;10.30;;;;;;;10.24;57.18;99653.59;4976576;28;20076;-77
2021/04/05 08:46:33;;;;;;;10.40;9.30;;;;;;;10.27;56.20;99632.13;5024979;28;20041;-77
2021/04/05 08:49:01;;;;;;;11.52;10.35;;;;;;;10.50;56.32;99627.72;5035952;28;20029;-78
2021/04/05 08:51:35;;;;;;;11.70;10.32;;;;;;;10.30;55.50;99565.81;5028832;28;20025;-77
2021/04/05 08:54:04;;;;;;;12.50;9.20;;;;;;;10.89;53.21;99644.44;5026592;28;20040;-77
2021/04/05 08:56:49;;;;;;;10.57;9.43;;;;;;;10.94;53.74;99615.66;5032848;28;20403;-77
2021/04/05 08:59:32;;;;;;;9.98;8.30;;;;;;;11.37;53.40;99657.25;5036779;28;20037;-76
2021/04/05 09:02:26;;;;;;;9.07;8.20;;;;;;;10.83;53.60;99553.53;5017855;28;20396;-77
2021/04/05 09:04:54;;;;;;;10.10;9.05;;;;;;;11.46;54.13;99663.25;5004686;28;20432;-78
2021/04/05 09:07:34;;;;;;;9.02;7.90;;;;;;;11.54;53.42;99668.47;5034603;28;20048;-76
2021/04/05 09:10:06;;;;;;;11.70;9.02;;;;;;;10.99;53.27;99548.09;5032727;28;20041;-77
2021/04/05 09:12:35;;;;;;;8.73;7.82;;;;;;;12.03;52.81;99652.09;5028881;28;20029;-77
2021/04/05 09:15:12;;;;;;;10.60;9.50;;;;;;;11.87;51.77;99618.69;5033120;28;20101;-77
2021/04/05 09:17:54;;;;;;;9.27;8.38;;;;;;;11.78;51.88;99609.22;5034857;28;20033;-76
2021/04/05 09:20:44;;;;;;;11.60;9.52;;;;;;;12.21;51.23;99649.06;5023844;28;20422;-76
2021/04/05 09:23:12;;;;;;;9.55;7.85;;;;;;;12.17;51.45;99642.50;5037033;28;20014;-77
2021/04/05 09:25:41;;;;;;;10.52;7.55;;;;;;;12.37;50.97;99639.06;5036245;28;20419;-76
2021/04/05 09:28:24;;;;;;;8.77;7.88;;;;;;;12.41;50.93;99639.50;5035204;28;20071;-76
2021/04/05 09:31:15;;;;;;;10.13;7.13;;;;;;;12.63;50.00;99632.41;5034273;28;20399;-76
2021/04/05 09:34:05;;;;;;;8.30;6.95;;;;;;;12.95;50.43;99625.78;5028184;28;20028;-76
2021/04/05 09:36:53;;;;;;;6.95;6.07;;;;;;;12.87;48.54;99632.03;5007028;28;20025;-77
2021/04/05 09:39:37;;;;;;;8.98;6.82;;;;;;;13.03;47.40;99631.75;5033566;28;20348;-78
2021/04/05 09:42:37;;;;;;;7.53;5.65;;;;;;;13.23;48.87;99626.66;5024524;28;20026;-78
2021/04/05 09:45:09;;;;;;;5.47;4.97;;;;;;;13.45;47.66;99606.22;5012666;28;20049;-78
2021/04/05 09:48:02;;;;;;;6.13;5.22;;;;;;;13.72;47.31;99612.47;5017029;28;20029;-77
2021/04/05 09:50:58;;;;;;;7.63;5.38;;;;;;;13.58;47.10;99555.88;4998870;28;20093;-77
2021/04/05 09:53:30;;;;;;;5.35;4.85;;;;;;;14.21;46.11;99583.09;5010677;28;20120;-78
2021/04/05 09:56:02;;;;;;;5.95;5.05;;;;;;;14.09;44.28;99595.28;5018436;28;20036;-78
2021/04/05 09:58:35;;;;;;;4.57;4.18;;;;;;;13.79;45.20;99546.19;5017528;28;20037;-77
2021/04/05 10:01:06;;;;;;;5.60;5.10;;;;;;;14.43;43.80;99582.97;5015943;28;20030;-77
2021/04/05 10:03:40;;;;;;;7.03;5.53;;;;;;;14.70;44.47;99613.03;5033036;28;20368;-76
2021/04/05 10:06:07;;;;;;;6.45;5.00;;;;;;;14.54;43.82;99574.41;5034910;28;20029;-76
2021/04/05 10:08:36;;;;;;;5.00;4.50;;;;;;;14.58;43.12;99541.91;5035291;28;20067;-77
2021/04/05 10:11:04;;;;;;;5.95;4.85;;;;;;;15.08;42.50;99592.84;5031201;28;20028;-76
2021/04/05 10:13:30;;;;;;;4.30;3.90;;;;;;;15.23;41.51;99582.78;5034055;28;20059;-77
2021/04/05 10:15:59;;;;;;;5.20;4.68;;;;;;;15.36;41.32;99542.03;5032096;28;20044;-77
2021/04/05 10:18:27;;;;;;;4.80;4.35;;;;;;;15.92;40.62;99568.09;5035117;28;20021;-77
2021/04/05 10:20:53;;;;;;;4.95;4.45;;;;;;;16.10;40.25;99575.38;5017773;28;20101;-77
2021/04/05 10:23:22;;;;;;;6.25;5.68;;;;;;;15.53;39.81;99550.38;5035229;28;20048;-77
2021/04/05 10:25:54;;;;;;;5.65;4.60;;;;;;;15.05;40.50;99569.31;5024609;28;20129;-77
2021/04/05 10:28:20;;;;;;;5.80;5.28;;;;;;;14.59;41.51;99572.75;5034058;28;20116;-77
2021/04/05 10:30:54;;;;;;;4.13;3.70;;;;;;;14.48;40.85;99544.16;5034246;28;20033;-76
2021/04/05 10:33:27;;;;;;;5.05;4.55;;;;;;;14.59;40.50;99553.34;5034899;28;20127;-77
2021/04/05 10:35:57;;;;;;;4.70;4.30;;;;;;;14.27;40.81;99449.50;5032512;28;20060;-77
2021/04/05 10:38:23;;;;;;;6.25;4.85;;;;;;;15.35;40.38;99547.56;5032647;28;20095;-77
2021/04/05 10:40:51;;;;;;;5.20;4.63;;;;;;;16.14;39.74;99582.75;5027234;28;20121;-76
2021/04/05 10:43:25;;;;;;;4.32;3.83;;;;;;;16.19;39.84;99587.44;5017091;28;20026;-76
2021/04/05 10:46:05;;;;;;;3.92;3.53;;;;;;;16.46;38.29;99588.94;5035102;28;20041;-76
2021/04/05 10:48:42;;;;;;;4.88;2.80;;;;;;;16.07;38.38;99581.94;5017156;28;20025;-76
2021/04/05 10:51:37;;;;;;;3.65;2.85;;;;;;;15.65;39.00;99579.88;5030942;28;20032;-76
2021/04/05 10:54:07;;;;;;;2.67;2.47;;;;;;;15.30;39.35;99550.84;5029369;28;20022;-76
2021/04/05 10:56:37;;;;;;;2.63;2.42;;;;;;;15.36;39.51;99579.28;5011466;28;20482;-76
2021/04/05 10:59:19;;;;;;;4.47;4.07;;;;;;;15.49;39.58;99571.25;5015033;28;20498;-76
2021/04/05 11:01:48;;;;;;;4.65;4.18;;;;;;;15.06;40.13;99523.09;5027049;28;20021;-76
2021/04/05 11:04:17;;;;;;;4.57;3.83;;;;;;;15.25;40.25;99572.75;5033094;28;20033;-76
2021/04/05 11:06:44;;;;;;;5.18;4.22;;;;;;;14.65;40.58;99453.38;5033347;28;20048;-76
2021/04/05 11:09:11;;;;;;;5.32;4.35;;;;;;;15.18;40.59;99563.16;5032886;28;20172;-76
2021/04/05 11:11:39;;;;;;;5.85;4.13;;;;;;;14.95;41.14;99539.66;5034521;28;20021;-76
2021/04/05 11:14:11;;;;;;;4.22;3.83;;;;;;;14.77;40.93;99539.44;5014660;28;20086;-76
2021/04/05 11:16:37;;;;;;;8.68;4.22;;;;;;;14.50;41.72;99546.59;5014444;28;20028;-76
2021/04/05 11:19:07;;;;;;;5.68;4.57;;;;;;;14.46;41.48;99563.97;5017459;28;20037;-76
2021/04/05 11:21:41;;;;;;;3.90;3.50;;;;;;;14.18;41.60;99548.97;5030107;28;20034;-76
2021/04/05 11:24:09;;;;;;;8.20;4.00;;;;;;;14.07;42.00;99554.84;5030198;28;20101;-77
2021/04/05 11:26:37;;;;;;;3.67;3.38;;;;;;;14.57;41.27;99542.09;5031169;28;20022;-78
2021/04/05 11:29:06;;;;;;;4.03;3.40;;;;;;;15.41;39.36;99542.22;5025413;28;20466;-78
2021/04/05 11:31:39;;;;;;;3.17;2.88;;;;;;;15.96;38.48;99517.91;5014973;28;20031;-78
2021/04/05 11:34:06;;;;;;;3.10;2.80;;;;;;;16.52;36.74;99528.63;5031474;28;20064;-76
2021/04/05 11:36:48;;;;;;;4.35;3.97;;;;;;;16.89;36.13;99526.91;5032518;28;20034;-78
2021/04/05 11:39:17;;;;;;;4.80;4.22;;;;;;;17.03;35.75;99491.06;5028036;28;20436;-79
2021/04/05 11:41:46;;;;;;;5.18;4.68;;;;;;;17.45;35.23;99521.41;4999178;28;20092;-77
2021/04/05 11:44:17;;;;;;;6.75;4.88;;;;;;;17.23;35.38;99525.56;5030831;28;20017;-80
2021/04/05 11:46:46;;;;;;;5.73;5.13;;;;;;;16.88;35.69;99489.78;5034464;28;20033;-78
2021/04/05 11:49:16;;;;;;;4.45;3.85;;;;;;;16.67;36.00;99462.50;5020268;28;20272;-78
2021/04/05 11:52:03;;;;;;;6.25;4.57;;;;;;;17.24;35.75;99510.38;5001025;28;20113;-77
2021/04/05 11:54:37;;;;;;;6.80;3.60;;;;;;;17.15;36.16;99504.50;5019427;28;20317;-77
2021/04/05 11:57:08;;;;;;;6.85;4.90;;;;;;;16.45;36.79;99463.88;5023454;28;20021;-76
2021/04/05 11:59:37;;;;;;;5.43;4.35;;;;;;;16.87;36.42;99482.81;5007640;28;20034;-78
2021/04/05 12:02:18;;;;;;;6.72;5.82;;;;;;;17.28;36.24;99450.19;5022988;28;20029;-77
2021/04/05 12:05:01;;;;;;;6.72;3.78;;;;;;;17.90;35.75;99493.59;5007034;28;20352;-78
2021/04/05 12:07:27;;;;;;;4.60;4.20;;;;;;;18.21;35.20;99484.50;5018057;28;20041;-78
2021/04/05 12:10:05;;;;;;;5.95;5.35;;;;;;;18.59;34.60;99482.25;5026701;28;20054;-78